createdAt,value
2022-09-07T00:00:53.872Z,2.03
2022-09-07T00:03:20.838Z,2.20
2022-09-07T00:05:49.433Z,2.17
2022-09-07T00:08:18.147Z,2.10
2022-09-07T00:11:02.361Z,2.72
2022-09-07T00:13:33.494Z,2.03
2022-09-07T00:16:04.663Z,2.30
2022-09-07T00:18:31.650Z,1.92
2022-09-07T00:21:00.696Z,2.63
2022-09-07T00:23:28.819Z,2.33
2022-09-07T00:26:00.553Z,2.33
2022-09-07T00:28:27.189Z,2.55
2022-09-07T00:30:53.717Z,2.20
2022-09-07T00:33:20.272Z,2.55
2022-09-07T00:35:46.780Z,2.20
2022-09-07T00:38:13.542Z,2.53
2022-09-07T00:40:40.344Z,1.88
2022-09-07T00:43:07.768Z,2.15
2022-09-07T00:45:34.268Z,1.67
2022-09-07T00:48:15.052Z,2.30
2022-09-07T00:50:46.361Z,2.08
2022-09-07T00:53:18.933Z,2.03
2022-09-07T00:55:48.202Z,2.28
2022-09-07T00:58:15.939Z,2.28
2022-09-07T01:00:45.989Z,1.98
2022-09-07T01:03:16.253Z,2.05
2022-09-07T01:09:25.621Z,1.90
2022-09-07T01:11:54.726Z,2.40
2022-09-07T01:14:26.564Z,2.58
2022-09-07T01:17:09.690Z,2.20
2022-09-07T01:20:00.550Z,2.10
2022-09-07T01:23:11.679Z,2.58
2022-09-07T01:26:13.666Z,2.03
2022-09-07T01:31:28.491Z,2.38
2022-09-07T01:34:05.386Z,2.40
2022-09-07T01:36:40.359Z,2.80
2022-09-07T01:39:07.087Z,2.45
2022-09-07T01:41:49.050Z,2.25
2022-09-07T01:44:25.009Z,2.63
2022-09-07T01:46:57.198Z,2.40
2022-09-07T01:49:41.080Z,2.35
2022-09-07T01:52:14.668Z,2.08
2022-09-07T01:55:10.701Z,2.10
2022-09-07T01:57:45.193Z,1.77
2022-09-07T02:00:18.486Z,2.13
2022-09-07T02:02:51.235Z,2.10
2022-09-07T02:05:23.808Z,1.70
2022-09-07T02:07:56.222Z,2.63
2022-09-07T02:10:40.480Z,2.20
2022-09-07T02:13:16.465Z,2.03
2022-09-07T02:15:58.238Z,1.90
2022-09-07T02:20:56.042Z,2.35
2022-09-07T02:23:28.150Z,2.58
2022-09-07T02:26:01.294Z,2.28
2022-09-07T02:28:34.641Z,1.80
2022-09-07T02:31:01.745Z,2.17
2022-09-07T02:33:29.216Z,2.15
2022-09-07T02:35:55.872Z,1.88
2022-09-07T02:38:23.030Z,1.95
2022-09-07T02:40:56.775Z,2.67
2022-09-07T02:43:25.311Z,2.20
2022-09-07T02:45:57.756Z,2.05
2022-09-07T02:48:24.257Z,2.20
2022-09-07T02:51:13.850Z,2.47
2022-09-07T02:53:59.867Z,2.50
2022-09-07T02:56:46.141Z,2.10
2022-09-07T02:59:56.423Z,2.55
2022-09-07T03:02:34.076Z,2.50
2022-09-07T03:05:20.899Z,2.28
2022-09-07T03:08:05.698Z,2.28
2022-09-07T03:10:32.987Z,2.40
2022-09-07T03:12:59.482Z,2.20
2022-09-07T03:15:27.554Z,2.55
2022-09-07T03:17:54.162Z,1.90
2022-09-07T03:20:22.156Z,2.20
2022-09-07T03:22:50.334Z,2.60
2022-09-07T03:25:17.692Z,2.25
2022-09-07T03:27:44.368Z,2.20
2022-09-07T03:30:12.728Z,2.67
2022-09-07T03:32:39.534Z,2.53
2022-09-07T03:35:07.482Z,2.45
2022-09-07T03:37:36.693Z,2.35
2022-09-07T03:40:09.333Z,2.05
2022-09-07T03:42:37.676Z,2.65
2022-09-07T03:45:05.314Z,2.45
2022-09-07T03:47:34.131Z,2.70
2022-09-07T03:50:00.663Z,2.65
2022-09-07T03:52:27.228Z,2.38
2022-09-07T03:54:53.759Z,2.63
2022-09-07T03:57:20.339Z,2.30
2022-09-07T03:59:47.150Z,2.35
2022-09-07T04:02:14.304Z,2.63
2022-09-07T04:04:42.493Z,2.50
2022-09-07T04:07:09.402Z,2.63
2022-09-07T04:09:35.947Z,2.72
2022-09-07T04:12:02.930Z,2.45
2022-09-07T04:14:29.469Z,3.55
2022-09-07T04:16:56.396Z,2.38
2022-09-07T04:19:23.591Z,2.55
2022-09-07T04:21:50.145Z,3.17
2022-09-07T04:24:17.975Z,2.58
2022-09-07T04:26:45.144Z,3.22
2022-09-07T04:29:13.162Z,2.90
2022-09-07T04:31:39.999Z,2.85
2022-09-07T04:34:06.879Z,3.00
2022-09-07T04:36:33.822Z,3.05
2022-09-07T04:39:02.878Z,3.17
2022-09-07T04:41:31.701Z,3.47
2022-09-07T04:44:00.574Z,3.00
2022-09-07T04:46:35.717Z,3.17
2022-09-07T04:49:08.322Z,3.88
2022-09-07T04:51:36.425Z,6.55
2022-09-07T04:54:04.062Z,9.40
2022-09-07T04:56:31.647Z,10.82
2022-09-07T04:58:59.221Z,5.43
2022-09-07T05:01:26.237Z,10.77
2022-09-07T05:03:53.317Z,9.32
2022-09-07T05:06:21.790Z,6.97
2022-09-07T05:08:53.758Z,5.75
2022-09-07T05:11:28.424Z,7.30
2022-09-07T05:13:56.853Z,7.28
2022-09-07T05:16:24.588Z,8.07
2022-09-07T05:18:53.451Z,12.93
2022-09-07T05:21:23.035Z,8.50
2022-09-07T05:23:51.437Z,5.40
2022-09-07T05:26:19.024Z,11.25
2022-09-07T05:28:46.062Z,12.98
2022-09-07T05:31:19.654Z,12.50
2022-09-07T05:36:39.148Z,12.07
2022-09-07T05:39:06.902Z,5.78
2022-09-07T05:41:33.792Z,6.93
2022-09-07T05:46:47.324Z,7.15
2022-09-07T05:49:13.887Z,8.25
2022-09-07T05:51:41.121Z,3.75
2022-09-07T05:54:07.659Z,3.47
2022-09-07T05:56:36.001Z,6.50
2022-09-07T05:59:03.317Z,4.32
2022-09-07T06:01:29.945Z,3.40
2022-09-07T06:03:56.502Z,3.92
2022-09-07T06:06:23.342Z,3.78
2022-09-07T06:08:52.446Z,4.00
2022-09-07T06:11:21.468Z,3.50
2022-09-07T06:13:48.650Z,4.05
2022-09-07T06:16:16.171Z,3.78
2022-09-07T06:18:45.303Z,3.45
2022-09-07T06:21:12.761Z,3.70
2022-09-07T06:23:41.124Z,3.45
2022-09-07T06:26:09.120Z,3.17
2022-09-07T06:28:38.179Z,4.18
2022-09-07T06:31:15.650Z,3.10
2022-09-07T06:33:43.394Z,3.47
2022-09-07T06:36:12.727Z,4.28
2022-09-07T06:38:40.255Z,3.17
2022-09-07T06:44:02.990Z,3.55
2022-09-07T06:49:16.043Z,3.88
2022-09-07T06:51:42.570Z,4.18
2022-09-07T06:56:56.318Z,3.42
2022-09-07T06:59:22.808Z,3.88
2022-09-07T07:01:49.358Z,4.32
2022-09-07T07:04:15.926Z,3.72
2022-09-07T07:06:42.472Z,3.80
2022-09-07T07:09:12.243Z,3.90
2022-09-07T07:11:38.832Z,4.15
2022-09-07T07:14:05.398Z,4.18
2022-09-07T07:16:32.078Z,4.18
2022-09-07T07:18:58.654Z,4.07
2022-09-07T07:21:25.223Z,4.57
2022-09-07T07:23:53.068Z,4.25
2022-09-07T07:26:22.139Z,3.67
2022-09-07T07:29:06.284Z,4.15
2022-09-07T07:31:33.739Z,4.22
2022-09-07T07:34:00.398Z,4.90
2022-09-07T07:36:28.161Z,4.05
2022-09-07T07:44:14.446Z,3.67
2022-09-07T07:46:41.058Z,3.90
2022-09-07T07:49:07.573Z,4.35
2022-09-07T07:52:49.782Z,4.38
2022-09-07T07:54:20.554Z,4.63
2022-09-07T07:56:47.195Z,4.38
2022-09-07T07:59:15.739Z,3.90
2022-09-07T08:01:43.740Z,4.40
2022-09-07T08:04:10.396Z,3.97
2022-09-07T08:06:37.747Z,4.40
2022-09-07T08:09:04.196Z,3.85
2022-09-07T08:11:31.220Z,4.82
2022-09-07T08:14:00.186Z,4.10
2022-09-07T08:16:26.698Z,4.45
2022-09-07T08:18:53.692Z,4.65
2022-09-07T08:21:20.140Z,4.72
2022-09-07T08:23:46.631Z,4.10
2022-09-07T08:26:13.184Z,4.55
2022-09-07T08:28:41.773Z,4.10
2022-09-07T08:31:11.246Z,4.20
2022-09-07T08:33:38.446Z,4.50
2022-09-07T08:36:12.510Z,4.28
2022-09-07T08:38:39.475Z,4.07
2022-09-07T08:41:34.780Z,4.30
2022-09-07T08:44:13.217Z,4.28
2022-09-07T08:46:47.325Z,4.22
2022-09-07T08:49:21.502Z,4.88
2022-09-07T08:51:54.737Z,4.45
2022-09-07T08:54:21.160Z,4.72
2022-09-07T09:00:03.999Z,4.15
2022-09-07T09:02:33.706Z,4.68
2022-09-07T09:05:20.608Z,5.20
2022-09-07T09:07:49.967Z,4.22
2022-09-07T09:10:31.305Z,5.35
2022-09-07T09:13:18.857Z,5.10
2022-09-07T09:15:52.200Z,4.35
2022-09-07T09:19:05.860Z,4.50
2022-09-07T09:21:35.214Z,4.43
2022-09-07T09:24:13.451Z,4.82
2022-09-07T09:26:42.944Z,4.60
2022-09-07T09:29:14.113Z,4.68
2022-09-07T09:31:40.654Z,4.45
2022-09-07T09:34:11.183Z,5.05
2022-09-07T09:36:48.320Z,4.33
2022-09-07T09:39:28.933Z,4.45
2022-09-07T09:41:58.330Z,4.07
2022-09-07T09:44:31.226Z,4.78
2022-09-07T09:49:45.078Z,4.65
2022-09-07T09:52:29.563Z,5.07
2022-09-07T09:55:03.397Z,4.47
2022-09-07T10:03:59.731Z,4.78
2022-09-07T10:06:28.857Z,5.15
2022-09-07T10:09:02.128Z,4.72
2022-09-07T10:14:47.009Z,5.18
2022-09-07T10:17:42.338Z,5.22
2022-09-07T10:20:18.765Z,4.82
2022-09-07T10:22:51.670Z,5.40
2022-09-07T10:25:36.833Z,5.15
2022-09-07T10:28:09.972Z,5.70
2022-09-07T10:31:04.284Z,5.20
2022-09-07T10:37:01.724Z,5.45
2022-09-07T10:39:35.733Z,5.63
2022-09-07T10:42:10.340Z,5.40
2022-09-07T10:44:58.369Z,5.30
2022-09-07T10:48:01.684Z,5.40
2022-09-07T10:50:36.626Z,5.90
2022-09-07T10:53:41.470Z,5.88
2022-09-07T10:56:18.184Z,5.47
2022-09-07T10:59:18.807Z,5.68
2022-09-07T11:02:13.911Z,6.20
2022-09-07T11:05:03.853Z,5.82
2022-09-07T11:07:42.621Z,6.22
2022-09-07T11:10:30.844Z,5.65
2022-09-07T11:13:00.245Z,5.93
2022-09-07T11:15:52.692Z,7.22
2022-09-07T11:18:28.143Z,8.70
2022-09-07T11:20:58.883Z,5.88
2022-09-07T11:23:43.572Z,6.63
2022-09-07T11:26:30.386Z,6.28
2022-09-07T11:32:01.838Z,6.45
2022-09-07T11:34:33.766Z,6.72
2022-09-07T11:37:10.821Z,6.43
2022-09-07T11:39:58.752Z,6.40
2022-09-07T11:42:44.978Z,5.90
2022-09-07T11:45:19.132Z,5.70
2022-09-07T11:48:05.788Z,6.97
2022-09-07T11:50:36.673Z,6.97
2022-09-07T11:53:06.629Z,6.90
2022-09-07T11:55:38.441Z,6.65
2022-09-07T11:58:16.978Z,6.13
2022-09-07T12:00:49.778Z,5.60
2022-09-07T12:03:35.234Z,6.80
2022-09-07T12:06:43.229Z,6.47
2022-09-07T12:09:36.035Z,5.82
2022-09-07T12:12:08.435Z,7.40
2022-09-07T12:14:48.169Z,6.05
2022-09-07T12:17:44.019Z,7.57
2022-09-07T12:20:17.853Z,6.63
2022-09-07T12:23:05.799Z,8.27
2022-09-07T12:25:34.174Z,6.80
2022-09-07T12:28:01.152Z,6.18
2022-09-07T12:30:29.061Z,5.80
2022-09-07T12:32:57.045Z,6.72
2022-09-07T12:35:30.019Z,6.82
2022-09-07T12:37:58.233Z,5.65
2022-09-07T12:40:29.754Z,5.90
2022-09-07T12:43:14.411Z,6.85
2022-09-07T12:45:40.853Z,6.57
2022-09-07T12:48:13.289Z,6.22
2022-09-07T12:51:03.186Z,6.32
2022-09-07T12:54:19.197Z,6.90
2022-09-07T13:00:18.412Z,6.10
2022-09-07T13:03:00.266Z,6.70
2022-09-07T13:06:03.766Z,5.93
2022-09-07T13:08:52.098Z,5.70
2022-09-07T13:11:21.565Z,6.25
2022-09-07T13:14:17.486Z,6.10
2022-09-07T13:19:50.755Z,6.20
2022-09-07T13:22:29.110Z,6.88
2022-09-07T13:24:59.480Z,6.72
2022-09-07T13:27:51.217Z,6.10
2022-09-07T13:30:23.973Z,6.70
2022-09-07T13:35:37.494Z,5.43
2022-09-07T13:38:04.848Z,6.28
2022-09-07T13:40:39.229Z,6.28
2022-09-07T13:43:12.560Z,6.13
2022-09-07T13:45:54.762Z,5.63
2022-09-07T13:48:42.858Z,6.65
2022-09-07T13:51:29.101Z,6.53
2022-09-07T13:54:08.478Z,6.13
2022-09-07T13:57:03.060Z,6.07
2022-09-07T13:59:33.468Z,16.15
2022-09-07T14:02:00.671Z,6.40
2022-09-07T14:04:34.822Z,6.50
2022-09-07T14:07:15.413Z,5.97
2022-09-07T14:09:42.327Z,6.30
2022-09-07T14:12:20.389Z,5.97
2022-09-07T14:15:09.266Z,6.43
2022-09-07T14:17:36.234Z,5.65
2022-09-07T14:20:03.809Z,6.28
2022-09-07T14:22:35.190Z,6.32
2022-09-07T14:25:04.484Z,5.80
2022-09-07T14:27:42.920Z,6.53
2022-09-07T14:30:28.030Z,6.10
2022-09-07T14:33:13.353Z,7.13
2022-09-07T14:35:41.247Z,5.75
2022-09-07T14:39:03.958Z,8.18
2022-09-07T14:41:11.973Z,6.43
2022-09-07T14:43:50.718Z,6.70
2022-09-07T14:46:22.329Z,6.78
2022-09-07T14:48:52.130Z,6.32
2022-09-07T14:51:36.136Z,6.35
2022-09-07T14:54:06.102Z,5.95
2022-09-07T14:56:41.224Z,5.72
2022-09-07T14:59:33.036Z,6.13
2022-09-07T15:02:17.904Z,6.07
2022-09-07T15:04:49.860Z,6.40
2022-09-07T15:07:29.441Z,6.35
2022-09-07T15:09:56.030Z,6.55
2022-09-07T15:12:38.225Z,7.55
2022-09-07T15:15:24.430Z,6.05
2022-09-07T15:17:53.176Z,5.78
2022-09-07T15:20:34.953Z,6.63
2022-09-07T15:23:04.879Z,5.65
2022-09-07T15:25:32.668Z,5.82
2022-09-07T15:27:59.214Z,5.65
2022-09-07T15:30:27.242Z,6.00
2022-09-07T15:32:57.364Z,5.97
2022-09-07T15:35:24.531Z,6.43
2022-09-07T15:38:59.313Z,6.70
2022-09-07T15:41:10.535Z,5.90
2022-09-07T15:43:30.601Z,5.95
2022-09-07T15:45:57.289Z,5.65
2022-09-07T15:48:25.224Z,5.88
2022-09-07T15:51:00.231Z,5.85
2022-09-07T15:56:14.071Z,5.30
2022-09-07T15:58:43.187Z,5.93
2022-09-07T16:03:59.001Z,5.90
2022-09-07T16:06:26.672Z,5.50
2022-09-07T16:08:53.743Z,5.65
2022-09-07T16:11:25.762Z,6.45
2022-09-07T16:14:02.822Z,5.13
2022-09-07T16:19:22.215Z,5.32
2022-09-07T16:21:48.677Z,5.55
2022-09-07T16:24:16.213Z,5.32
2022-09-07T16:26:42.730Z,5.85
2022-09-07T16:29:09.213Z,5.65
2022-09-07T16:31:36.052Z,5.20
2022-09-07T16:34:03.401Z,5.25
2022-09-07T16:36:30.668Z,5.28
2022-09-07T16:39:00.258Z,5.40
2022-09-07T16:41:31.716Z,5.60
2022-09-07T16:43:58.623Z,5.13
2022-09-07T16:46:28.311Z,5.97
2022-09-07T16:48:55.175Z,5.88
2022-09-07T16:51:22.890Z,5.45
2022-09-07T16:53:51.677Z,6.45
2022-09-07T16:56:20.319Z,5.55
2022-09-07T16:58:50.046Z,5.80
2022-09-07T17:01:19.037Z,6.20
2022-09-07T17:03:45.912Z,5.68
2022-09-07T17:06:14.318Z,6.35
2022-09-07T17:08:42.205Z,5.53
2022-09-07T17:11:12.799Z,5.50
2022-09-07T17:13:41.042Z,5.67
2022-09-07T17:16:10.537Z,5.90
2022-09-07T17:21:24.438Z,6.03
2022-09-07T17:23:55.586Z,6.63
2022-09-07T17:26:23.646Z,6.95
2022-09-07T17:28:54.695Z,5.45
2022-09-07T17:34:14.498Z,6.72
2022-09-07T17:36:41.024Z,5.45
2022-09-07T17:39:16.779Z,5.10
2022-09-07T17:41:45.113Z,4.70
2022-09-07T17:44:11.624Z,3.65
2022-09-07T17:46:38.043Z,3.90
2022-09-07T17:49:06.968Z,3.95
2022-09-07T17:51:33.416Z,3.30
2022-09-07T17:54:09.555Z,2.90
2022-09-07T17:56:37.395Z,2.75
2022-09-07T18:01:50.744Z,3.55
2022-09-07T18:04:17.442Z,3.45
2022-09-07T18:06:43.918Z,4.00
2022-09-07T18:09:11.284Z,3.10
2022-09-07T18:11:46.873Z,3.67
2022-09-07T18:14:14.564Z,4.05
2022-09-07T18:16:42.687Z,3.85
2022-09-07T18:19:11.791Z,3.95
2022-09-07T18:21:38.444Z,3.70
2022-09-07T18:24:16.607Z,3.88
2022-09-07T18:26:43.764Z,4.38
2022-09-07T18:29:27.285Z,4.57
2022-09-07T18:31:55.275Z,4.63
2022-09-07T18:34:22.335Z,5.15
2022-09-07T18:36:48.809Z,5.18
2022-09-07T18:39:15.282Z,5.07
2022-09-07T18:41:42.194Z,5.82
2022-09-07T18:46:55.823Z,5.50
2022-09-07T18:49:22.287Z,5.28
2022-09-07T18:54:35.211Z,5.82
2022-09-07T18:57:01.739Z,5.22
2022-09-07T18:59:29.564Z,5.93
2022-09-07T19:02:00.151Z,5.82
2022-09-07T19:05:49.526Z,5.68
2022-09-07T19:07:17.448Z,5.90
2022-09-07T19:09:43.938Z,5.57
2022-09-07T19:12:10.448Z,6.63
2022-09-07T19:14:36.912Z,5.88
2022-09-07T19:17:03.530Z,6.85
2022-09-07T19:19:30.204Z,6.53
2022-09-07T19:21:57.796Z,6.45
2022-09-07T19:24:25.649Z,6.47
2022-09-07T19:26:53.911Z,6.30
2022-09-07T19:29:23.582Z,6.30
2022-09-07T19:32:06.693Z,6.20
2022-09-07T19:34:34.891Z,5.90
2022-09-07T19:37:01.837Z,6.13
2022-09-07T19:39:28.781Z,6.15
2022-09-07T19:41:55.511Z,5.80
2022-09-07T19:44:22.043Z,6.38
2022-09-07T19:46:49.093Z,5.43
2022-09-07T19:49:16.115Z,5.57
2022-09-07T19:51:42.896Z,6.07
2022-09-07T19:54:11.058Z,6.10
2022-09-07T19:56:42.728Z,5.90
2022-09-07T19:59:09.465Z,5.95
2022-09-07T20:01:37.634Z,5.90
2022-09-07T20:04:07.534Z,5.70
2022-09-07T20:06:34.905Z,6.03
2022-09-07T20:09:01.779Z,6.53
2022-09-07T20:11:28.929Z,5.90
2022-09-07T20:13:57.019Z,5.78
2022-09-07T20:16:24.556Z,6.10
2022-09-07T20:18:51.448Z,6.53
2022-09-07T20:21:21.226Z,5.18
2022-09-07T20:23:48.286Z,5.90
2022-09-07T20:26:17.736Z,5.78
2022-09-07T20:28:44.658Z,5.72
2022-09-07T20:31:14.249Z,5.75
2022-09-07T20:33:45.751Z,5.88
2022-09-07T20:36:14.203Z,5.82
2022-09-07T20:38:43.114Z,5.30
2022-09-07T20:41:16.753Z,5.13
2022-09-07T20:43:43.309Z,5.95
2022-09-07T20:46:09.752Z,6.45
2022-09-07T20:48:37.315Z,5.88
2022-09-07T20:51:06.461Z,5.85
2022-09-07T20:53:32.936Z,6.05
2022-09-07T20:56:04.468Z,5.95
2022-09-07T21:00:58.015Z,5.78
2022-09-07T21:03:25.074Z,6.22
2022-09-07T21:05:51.863Z,5.93
2022-09-07T21:08:18.451Z,5.95
2022-09-07T21:10:46.586Z,6.20
2022-09-07T21:13:14.498Z,6.32
2022-09-07T21:15:42.597Z,5.70
2022-09-07T21:18:15.157Z,5.68
2022-09-07T21:20:53.244Z,5.57
2022-09-07T21:23:31.304Z,5.18
2022-09-07T21:25:58.323Z,5.78
2022-09-07T21:28:25.873Z,5.95
2022-09-07T21:31:01.241Z,5.47
2022-09-07T21:33:29.039Z,5.30
2022-09-07T21:35:55.660Z,5.63
2022-09-07T21:38:22.651Z,5.00
2022-09-07T21:40:49.315Z,5.65
2022-09-07T21:43:16.770Z,5.90
2022-09-07T21:45:43.215Z,5.38
2022-09-07T21:48:09.798Z,5.78
2022-09-07T21:50:36.365Z,5.22
2022-09-07T21:53:02.942Z,5.25
2022-09-07T21:55:29.343Z,5.22
2022-09-07T21:57:55.824Z,5.65
2022-09-07T22:00:22.836Z,5.00
2022-09-07T22:02:51.022Z,4.82
2022-09-07T22:05:17.696Z,5.10
2022-09-07T22:07:44.329Z,4.82
2022-09-07T22:10:10.923Z,4.82
2022-09-07T22:12:37.338Z,4.80
2022-09-07T22:15:03.991Z,4.90
2022-09-07T22:17:31.449Z,4.78
2022-09-07T22:19:57.959Z,4.97
2022-09-07T22:22:24.412Z,5.63
2022-09-07T22:24:50.790Z,5.30
2022-09-07T22:27:17.194Z,5.03
2022-09-07T22:29:43.626Z,5.32
2022-09-07T22:32:10.079Z,5.00
2022-09-07T22:34:36.617Z,5.13
2022-09-07T22:37:03.050Z,4.80
2022-09-07T22:39:29.668Z,5.13
2022-09-07T22:41:56.181Z,5.00
2022-09-07T22:44:22.662Z,4.82
2022-09-07T22:46:49.245Z,4.68
2022-09-07T22:49:16.862Z,5.07
2022-09-07T22:51:44.411Z,5.53
2022-09-07T22:54:11.025Z,4.75
2022-09-07T22:56:38.987Z,4.78
2022-09-07T22:59:08.027Z,5.03
2022-09-07T23:01:35.906Z,4.05
2022-09-07T23:04:03.518Z,4.72
2022-09-07T23:06:33.396Z,4.85
2022-09-07T23:09:02.812Z,4.68
2022-09-07T23:11:29.769Z,4.47
2022-09-07T23:13:59.015Z,4.90
2022-09-07T23:16:27.334Z,5.25
2022-09-07T23:18:55.412Z,4.50
2022-09-07T23:21:21.926Z,5.00
2022-09-07T23:23:52.788Z,4.32
2022-09-07T23:26:20.738Z,4.35
2022-09-07T23:29:01.450Z,4.68
2022-09-07T23:31:29.650Z,5.55
2022-09-07T23:33:57.642Z,5.00
2022-09-07T23:36:24.770Z,4.82
2022-09-07T23:38:54.642Z,5.00
2022-09-07T23:41:21.784Z,4.60
2022-09-07T23:43:48.426Z,4.43
2022-09-07T23:46:15.711Z,4.57
2022-09-07T23:48:46.309Z,4.40
2022-09-07T23:51:13.694Z,4.20
2022-09-07T23:53:41.282Z,4.72
2022-09-07T23:56:08.078Z,4.40
2022-09-07T23:58:34.754Z,3.95
